sensor_id;sensor_type;location;lat;lon;timestamp;pressure;altitude;pressure_sealevel;temperature;humidity
46598;BME280;32318;48.858;8.252;2024-02-16T00:00:37;100100.44;;;11.35;77.84
46598;BME280;32318;48.858;8.252;2024-02-16T00:08:39;100093.91;;;11.38;77.78
46598;BME280;32318;48.858;8.252;2024-02-16T00:16:39;100091.88;;;11.40;77.36
46598;BME280;32318;48.858;8.252;2024-02-16T00:24:39;100094.91;;;11.37;77.26
46598;BME280;32318;48.858;8.252;2024-02-16T00:32:40;100100.56;;;11.34;77.57
46598;BME280;32318;48.858;8.252;2024-02-16T00:40:40;100100.44;;;11.27;78.04
46598;BME280;32318;48.858;8.252;2024-02-16T00:48:43;100104.47;;;11.23;77.84
46598;BME280;32318;48.858;8.252;2024-02-16T00:56:44;100091.78;;;11.17;77.83
46598;BME280;32318;48.858;8.252;2024-02-16T01:04:44;100076.75;;;11.16;78.62
46598;BME280;32318;48.858;8.252;2024-02-16T01:12:44;100076.28;;;11.12;78.75
46598;BME280;32318;48.858;8.252;2024-02-16T01:20:45;100085.47;;;11.09;79.13
46598;BME280;32318;48.858;8.252;2024-02-16T01:28:45;100086.47;;;11.08;79.14
46598;BME280;32318;48.858;8.252;2024-02-16T01:36:45;100074.94;;;11.08;79.69
46598;BME280;32318;48.858;8.252;2024-02-16T01:44:46;100081.28;;;11.07;80.07
46598;BME280;32318;48.858;8.252;2024-02-16T01:52:48;100085.31;;;11.03;80.34
46598;BME280;32318;48.858;8.252;2024-02-16T02:00:48;100089.81;;;11.02;80.63
46598;BME280;32318;48.858;8.252;2024-02-16T02:08:49;100086.13;;;11.03;80.95
46598;BME280;32318;48.858;8.252;2024-02-16T02:16:49;100081.97;;;11.01;81.26
46598;BME280;32318;48.858;8.252;2024-02-16T02:24:50;100074.16;;;10.99;81.32
46598;BME280;32318;48.858;8.252;2024-02-16T02:32:50;100064.28;;;10.91;81.82
46598;BME280;32318;48.858;8.252;2024-02-16T02:40:51;100070.50;;;10.83;82.40
46598;BME280;32318;48.858;8.252;2024-02-16T02:48:51;100069.34;;;10.78;82.64
46598;BME280;32318;48.858;8.252;2024-02-16T02:56:52;100064.16;;;10.76;83.00
46598;BME280;32318;48.858;8.252;2024-02-16T03:04:53;100059.50;;;10.70;83.06
46598;BME280;32318;48.858;8.252;2024-02-16T03:12:53;100051.19;;;10.65;83.76
46598;BME280;32318;48.858;8.252;2024-02-16T03:20:55;100062.69;;;10.57;84.36
46598;BME280;32318;48.858;8.252;2024-02-16T03:28:55;100062.88;;;10.56;84.25
46598;BME280;32318;48.858;8.252;2024-02-16T03:36:56;100050.84;;;10.51;84.61
46598;BME280;32318;48.858;8.252;2024-02-16T03:44:59;100055.88;;;10.38;85.05
46598;BME280;32318;48.858;8.252;2024-02-16T03:53:00;100061.50;;;10.35;85.17
46598;BME280;32318;48.858;8.252;2024-02-16T04:01:00;100069.69;;;10.25;85.23
46598;BME280;32318;48.858;8.252;2024-02-16T04:09:00;100071.84;;;10.22;85.21
46598;BME280;32318;48.858;8.252;2024-02-16T04:17:01;100084.19;;;10.14;85.41
46598;BME280;32318;48.858;8.252;2024-02-16T04:25:01;100079.00;;;10.13;84.73
46598;BME280;32318;48.858;8.252;2024-02-16T04:33:02;100088.66;;;10.05;85.40
46598;BME280;32318;48.858;8.252;2024-02-16T04:41:05;100101.69;;;10.00;85.75
46598;BME280;32318;48.858;8.252;2024-02-16T04:49:05;100108.81;;;10.00;85.66
46598;BME280;32318;48.858;8.252;2024-02-16T04:57:06;100117.50;;;10.02;85.71
46598;BME280;32318;48.858;8.252;2024-02-16T05:05:06;100102.81;;;9.98;84.77
46598;BME280;32318;48.858;8.252;2024-02-16T05:13:07;100095.63;;;9.82;84.70
46598;BME280;32318;48.858;8.252;2024-02-16T05:21:07;100097.31;;;9.83;85.69
46598;BME280;32318;48.858;8.252;2024-02-16T05:29:07;100103.44;;;9.75;86.03
46598;BME280;32318;48.858;8.252;2024-02-16T05:37:08;100103.25;;;9.77;86.25
46598;BME280;32318;48.858;8.252;2024-02-16T05:45:10;100109.09;;;9.80;86.78
46598;BME280;32318;48.858;8.252;2024-02-16T05:53:11;100114.97;;;9.84;87.18
46598;BME280;32318;48.858;8.252;2024-02-16T06:01:12;100119.13;;;9.86;87.58
46598;BME280;32318;48.858;8.252;2024-02-16T06:09:14;100125.28;;;9.87;86.70
46598;BME280;32318;48.858;8.252;2024-02-16T06:17:15;100128.31;;;9.84;86.88
46598;BME280;32318;48.858;8.252;2024-02-16T06:25:16;100133.09;;;9.80;87.61
46598;BME280;32318;48.858;8.252;2024-02-16T06:33:17;100157.47;;;9.85;87.59
46598;BME280;32318;48.858;8.252;2024-02-16T06:41:17;100163.63;;;9.86;87.14
46598;BME280;32318;48.858;8.252;2024-02-16T06:49:17;100181.63;;;9.84;87.44
46598;BME280;32318;48.858;8.252;2024-02-16T06:57:17;100182.63;;;9.83;87.82
46598;BME280;32318;48.858;8.252;2024-02-16T07:05:19;100194.78;;;9.85;88.07
46598;BME280;32318;48.858;8.252;2024-02-16T07:13:19;100208.47;;;9.91;88.30
46598;BME280;32318;48.858;8.252;2024-02-16T07:21:20;100211.50;;;9.96;88.34
46598;BME280;32318;48.858;8.252;2024-02-16T07:29:24;100198.19;;;10.04;87.59
46598;BME280;32318;48.858;8.252;2024-02-16T07:37:24;100205.88;;;10.15;87.60
46598;BME280;32318;48.858;8.252;2024-02-16T07:45:25;100205.09;;;10.31;88.17
46598;BME280;32318;48.858;8.252;2024-02-16T07:53:25;100223.69;;;10.49;87.59
46598;BME280;32318;48.858;8.252;2024-02-16T08:01:26;100236.41;;;10.64;86.59
46598;BME280;32318;48.858;8.252;2024-02-16T08:09:27;100233.06;;;10.78;86.13
46598;BME280;32318;48.858;8.252;2024-02-16T08:17:27;100237.91;;;10.91;84.56
46598;BME280;32318;48.858;8.252;2024-02-16T08:25:28;100234.44;;;10.99;84.13
46598;BME280;32318;48.858;8.252;2024-02-16T08:33:30;100248.47;;;11.09;83.21
46598;BME280;32318;48.858;8.252;2024-02-16T08:41:31;100264.50;;;11.18;82.57
46598;BME280;32318;48.858;8.252;2024-02-16T08:49:32;100265.97;;;11.28;82.51
46598;BME280;32318;48.858;8.252;2024-02-16T08:57:32;100271.47;;;11.43;82.08
46598;BME280;32318;48.858;8.252;2024-02-16T09:05:34;100277.97;;;11.57;80.86
46598;BME280;32318;48.858;8.252;2024-02-16T09:13:35;100284.44;;;11.71;80.38
46598;BME280;32318;48.858;8.252;2024-02-16T09:21:35;100298.81;;;11.87;79.77
46598;BME280;32318;48.858;8.252;2024-02-16T09:29:36;100295.63;;;11.91;78.94
46598;BME280;32318;48.858;8.252;2024-02-16T09:37:39;100300.63;;;11.95;78.83
46598;BME280;32318;48.858;8.252;2024-02-16T09:45:39;100308.81;;;12.01;78.44
46598;BME280;32318;48.858;8.252;2024-02-16T09:53:39;100317.97;;;12.23;77.88
46598;BME280;32318;48.858;8.252;2024-02-16T10:01:40;100319.00;;;12.54;76.71
46598;BME280;32318;48.858;8.252;2024-02-16T10:09:40;100321.66;;;12.85;75.60
46598;BME280;32318;48.858;8.252;2024-02-16T10:17:41;100333.47;;;12.99;74.81
46598;BME280;32318;48.858;8.252;2024-02-16T10:25:41;100349.53;;;13.23;74.56
46598;BME280;32318;48.858;8.252;2024-02-16T10:33:41;100355.53;;;13.56;71.74
46598;BME280;32318;48.858;8.252;2024-02-16T10:41:44;100355.59;;;14.16;69.61
46598;BME280;32318;48.858;8.252;2024-02-16T10:49:45;100354.66;;;14.69;66.27
46598;BME280;32318;48.858;8.252;2024-02-16T10:57:45;100357.53;;;15.04;65.98
46598;BME280;32318;48.858;8.252;2024-02-16T11:05:45;100359.84;;;15.29;61.78
46598;BME280;32318;48.858;8.252;2024-02-16T11:13:46;100358.25;;;15.34;64.05
46598;BME280;32318;48.858;8.252;2024-02-16T11:21:59;100367.03;;;15.43;62.08
46598;BME280;32318;48.858;8.252;2024-02-16T11:30:05;100365.09;;;15.59;61.48
46598;BME280;32318;48.858;8.252;2024-02-16T11:38:07;100371.66;;;15.78;63.09
46598;BME280;32318;48.858;8.252;2024-02-16T11:46:14;100374.69;;;15.90;62.08
46598;BME280;32318;48.858;8.252;2024-02-16T11:54:16;100372.84;;;15.97;62.11
46598;BME280;32318;48.858;8.252;2024-02-16T12:02:17;100373.06;;;15.95;62.99
46598;BME280;32318;48.858;8.252;2024-02-16T12:10:19;100378.00;;;15.92;63.00
46598;BME280;32318;48.858;8.252;2024-02-16T12:18:26;100378.41;;;15.67;62.85
46598;BME280;32318;48.858;8.252;2024-02-16T12:26:27;100387.22;;;15.54;64.43
46598;BME280;32318;48.858;8.252;2024-02-16T12:34:28;100389.25;;;15.52;65.08
46598;BME280;32318;48.858;8.252;2024-02-16T12:42:28;100396.38;;;15.60;65.80
46598;BME280;32318;48.858;8.252;2024-02-16T12:50:30;100390.78;;;15.61;65.68
46598;BME280;32318;48.858;8.252;2024-02-16T12:58:30;100393.91;;;15.65;66.19
46598;BME280;32318;48.858;8.252;2024-02-16T13:06:32;100400.97;;;15.66;66.25
46598;BME280;32318;48.858;8.252;2024-02-16T13:14:33;100401.56;;;15.61;66.49
46598;BME280;32318;48.858;8.252;2024-02-16T13:22:33;100403.28;;;15.47;65.48
46598;BME280;32318;48.858;8.252;2024-02-16T13:30:34;100407.41;;;15.43;65.94
46598;BME280;32318;48.858;8.252;2024-02-16T13:38:34;100396.88;;;15.48;66.83
46598;BME280;32318;48.858;8.252;2024-02-16T13:46:34;100402.72;;;15.52;65.22
46598;BME280;32318;48.858;8.252;2024-02-16T13:54:35;100406.50;;;15.58;65.97
46598;BME280;32318;48.858;8.252;2024-02-16T14:02:36;100406.34;;;15.66;65.74
46598;BME280;32318;48.858;8.252;2024-02-16T14:10:36;100406.09;;;15.61;66.22
46598;BME280;32318;48.858;8.252;2024-02-16T14:18:37;100423.78;;;15.48;65.96
46598;BME280;32318;48.858;8.252;2024-02-16T14:26:37;100422.91;;;15.41;67.04
46598;BME280;32318;48.858;8.252;2024-02-16T14:34:37;100446.91;;;15.43;68.52
46598;BME280;32318;48.858;8.252;2024-02-16T14:42:40;100449.06;;;15.32;69.34
46598;BME280;32318;48.858;8.252;2024-02-16T14:50:40;100452.16;;;15.29;69.64
46598;BME280;32318;48.858;8.252;2024-02-16T14:58:41;100458.84;;;15.18;70.20
46598;BME280;32318;48.858;8.252;2024-02-16T15:06:42;100476.16;;;14.94;72.88
46598;BME280;32318;48.858;8.252;2024-02-16T15:14:43;100482.19;;;14.66;75.26
46598;BME280;32318;48.858;8.252;2024-02-16T15:22:43;100492.78;;;14.44;76.44
46598;BME280;32318;48.858;8.252;2024-02-16T15:30:44;100496.09;;;14.32;78.15
46598;BME280;32318;48.858;8.252;2024-02-16T15:38:45;100508.59;;;14.24;77.86
46598;BME280;32318;48.858;8.252;2024-02-16T15:46:45;100517.09;;;14.13;79.50
46598;BME280;32318;48.858;8.252;2024-02-16T15:54:45;100525.91;;;13.99;81.19
46598;BME280;32318;48.858;8.252;2024-02-16T16:11:17;100563.00;;;13.72;84.15
46598;BME280;32318;48.858;8.252;2024-02-16T16:28:32;100584.72;;;13.06;91.89
46598;BME280;32318;48.858;8.252;2024-02-16T16:36:32;100590.44;;;12.94;92.71
46598;BME280;32318;48.858;8.252;2024-02-16T16:44:32;100597.31;;;12.89;94.00
46598;BME280;32318;48.858;8.252;2024-02-16T16:52:33;100608.03;;;12.89;93.91
46598;BME280;32318;48.858;8.252;2024-02-16T17:00:34;100612.75;;;12.86;94.51
46598;BME280;32318;48.858;8.252;2024-02-16T17:08:34;100623.47;;;12.78;94.25
46598;BME280;32318;48.858;8.252;2024-02-16T17:16:35;100629.84;;;12.77;95.40
46598;BME280;32318;48.858;8.252;2024-02-16T17:24:35;100647.91;;;12.75;97.05
46598;BME280;32318;48.858;8.252;2024-02-16T17:32:35;100662.31;;;12.74;96.34
46598;BME280;32318;48.858;8.252;2024-02-16T17:40:38;100674.38;;;12.70;97.64
46598;BME280;32318;48.858;8.252;2024-02-16T17:48:38;100684.06;;;12.71;98.42
46598;BME280;32318;48.858;8.252;2024-02-16T17:56:39;100690.78;;;12.75;97.98
46598;BME280;32318;48.858;8.252;2024-02-16T18:04:39;100698.63;;;12.77;97.43
46598;BME280;32318;48.858;8.252;2024-02-16T18:12:39;100707.69;;;12.76;98.54
46598;BME280;32318;48.858;8.252;2024-02-16T18:20:39;100720.44;;;12.74;97.97
46598;BME280;32318;48.858;8.252;2024-02-16T18:28:40;100729.59;;;12.71;98.99
46598;BME280;32318;48.858;8.252;2024-02-16T18:36:40;100738.50;;;12.71;98.41
46598;BME280;32318;48.858;8.252;2024-02-16T18:44:41;100745.69;;;12.71;99.09
46598;BME280;32318;48.858;8.252;2024-02-16T18:52:41;100752.22;;;12.68;99.45
46598;BME280;32318;48.858;8.252;2024-02-16T19:00:41;100760.75;;;12.64;99.97
46598;BME280;32318;48.858;8.252;2024-02-16T19:08:43;100767.25;;;12.53;100.00
46598;BME280;32318;48.858;8.252;2024-02-16T19:16:43;100781.31;;;12.47;100.00
46598;BME280;32318;48.858;8.252;2024-02-16T19:24:45;100781.28;;;12.38;100.00
46598;BME280;32318;48.858;8.252;2024-02-16T19:32:45;100780.94;;;12.33;100.00
46598;BME280;32318;48.858;8.252;2024-02-16T19:40:45;100787.44;;;12.31;100.00
46598;BME280;32318;48.858;8.252;2024-02-16T19:48:48;100798.00;;;12.32;100.00
46598;BME280;32318;48.858;8.252;2024-02-16T19:56:52;100814.72;;;12.26;100.00
46598;BME280;32318;48.858;8.252;2024-02-16T20:04:53;100823.06;;;12.23;100.00
46598;BME280;32318;48.858;8.252;2024-02-16T20:12:53;100830.56;;;12.19;100.00
46598;BME280;32318;48.858;8.252;2024-02-16T20:20:54;100828.22;;;12.16;100.00
46598;BME280;32318;48.858;8.252;2024-02-16T20:28:54;100845.28;;;12.15;100.00
46598;BME280;32318;48.858;8.252;2024-02-16T20:36:55;100846.44;;;12.13;100.00
46598;BME280;32318;48.858;8.252;2024-02-16T20:44:55;100847.59;;;12.10;100.00
46598;BME280;32318;48.858;8.252;2024-02-16T20:52:55;100855.78;;;12.08;100.00
46598;BME280;32318;48.858;8.252;2024-02-16T21:00:55;100864.81;;;12.07;100.00
46598;BME280;32318;48.858;8.252;2024-02-16T21:08:56;100868.47;;;12.06;100.00
46598;BME280;32318;48.858;8.252;2024-02-16T21:16:56;100872.84;;;12.07;100.00
46598;BME280;32318;48.858;8.252;2024-02-16T21:24:56;100889.06;;;12.06;100.00
46598;BME280;32318;48.858;8.252;2024-02-16T21:32:57;100896.91;;;12.07;100.00
46598;BME280;32318;48.858;8.252;2024-02-16T21:41:03;100906.94;;;12.05;100.00
46598;BME280;32318;48.858;8.252;2024-02-16T21:49:09;100908.97;;;12.03;100.00
46598;BME280;32318;48.858;8.252;2024-02-16T21:57:10;100913.78;;;12.00;100.00
46598;BME280;32318;48.858;8.252;2024-02-16T22:05:10;100919.28;;;11.98;100.00
46598;BME280;32318;48.858;8.252;2024-02-16T22:13:13;100926.47;;;11.98;100.00
46598;BME280;32318;48.858;8.252;2024-02-16T22:21:14;100925.75;;;11.96;100.00
46598;BME280;32318;48.858;8.252;2024-02-16T22:29:15;100927.75;;;11.93;100.00
46598;BME280;32318;48.858;8.252;2024-02-16T22:37:16;100947.47;;;11.92;100.00
46598;BME280;32318;48.858;8.252;2024-02-16T22:45:16;100951.28;;;11.90;100.00
46598;BME280;32318;48.858;8.252;2024-02-16T22:53:16;100955.94;;;11.88;100.00
46598;BME280;32318;48.858;8.252;2024-02-16T23:01:16;100968.66;;;11.86;100.00
46598;BME280;32318;48.858;8.252;2024-02-16T23:09:17;100981.66;;;11.81;100.00
46598;BME280;32318;48.858;8.252;2024-02-16T23:17:17;100979.44;;;11.76;100.00
46598;BME280;32318;48.858;8.252;2024-02-16T23:25:18;100984.78;;;11.76;100.00
46598;BME280;32318;48.858;8.252;2024-02-16T23:33:18;100998.31;;;11.74;100.00
46598;BME280;32318;48.858;8.252;2024-02-16T23:41:25;101009.03;;;11.74;100.00
46598;BME280;32318;48.858;8.252;2024-02-16T23:49:25;101015.06;;;11.76;100.00
46598;BME280;32318;48.858;8.252;2024-02-16T23:57:27;101018.91;;;11.74;100.00
